createdAt,value
2019-03-01T00:01:34.482Z,94986.67
2019-03-01T00:05:42.383Z,94985.69
2019-03-01T00:09:34.996Z,94998.83
2019-03-01T00:13:50.373Z,94995.32
2019-03-01T00:17:39.926Z,95008.10
2019-03-01T00:21:35.639Z,95009.50
2019-03-01T00:25:42.819Z,95006.83
2019-03-01T00:29:24.449Z,94994.05
2019-03-01T00:33:20.339Z,94996.83
2019-03-01T00:37:13.849Z,95002.84
2019-03-01T00:41:05.750Z,94997.34
2019-03-01T00:44:29.700Z,94990.60
2019-03-01T00:47:37.139Z,94989.59
2019-03-01T00:50:44.734Z,94987.30
2019-03-01T00:53:51.922Z,94991.27
2019-03-01T00:56:59.876Z,94984.63
2019-03-01T01:00:15.879Z,94993.56
2019-03-01T01:03:23.171Z,94977.17
2019-03-01T01:06:30.606Z,94986.19
2019-03-01T01:09:38.260Z,94978.21
2019-03-01T01:12:45.975Z,94963.85
2019-03-01T01:15:53.246Z,94966.78
2019-03-01T01:19:00.823Z,94965.50
2019-03-01T01:22:08.552Z,94973.01
2019-03-01T01:25:15.919Z,94965.95
2019-03-01T01:28:23.084Z,94952.80
2019-03-01T01:31:30.461Z,94955.44
2019-03-01T01:34:37.851Z,94951.16
2019-03-01T01:37:45.575Z,94943.40
2019-03-01T01:40:52.974Z,94941.37
2019-03-01T01:44:00.536Z,94939.03
2019-03-01T01:47:08.313Z,94928.38
2019-03-01T01:50:16.029Z,94930.69
2019-03-01T01:53:23.619Z,94924.25
2019-03-01T01:56:31.105Z,94924.95
2019-03-01T01:59:38.808Z,94913.91
2019-03-01T02:02:46.314Z,94912.05
2019-03-01T02:05:54.041Z,94904.28
2019-03-01T02:09:01.414Z,94906.59
2019-03-01T02:12:09.204Z,94912.81
2019-03-01T02:15:16.587Z,94904.00
2019-03-01T02:18:23.963Z,94901.83
2019-03-01T02:21:31.595Z,94897.04
2019-03-01T02:24:39.088Z,94890.34
2019-03-01T02:27:46.583Z,94883.41
2019-03-01T02:30:54.997Z,94881.45
2019-03-01T02:34:02.306Z,94868.88
2019-03-01T02:37:11.732Z,94865.16
2019-03-01T02:40:19.227Z,94860.73
2019-03-01T02:43:26.689Z,94858.87
2019-03-01T02:46:33.970Z,94854.97
2019-03-01T02:49:41.343Z,94854.36
2019-03-01T02:52:48.716Z,94847.45
2019-03-01T02:55:56.179Z,94842.41
2019-03-01T02:59:03.698Z,94843.38
2019-03-01T03:02:11.408Z,94838.27
2019-03-01T03:05:18.857Z,94822.10
2019-03-01T03:08:26.299Z,94825.45
2019-03-01T03:11:33.573Z,94824.67
2019-03-01T03:14:40.881Z,94811.45
2019-03-01T03:17:48.627Z,94816.44
2019-03-01T03:20:56.273Z,94811.05
2019-03-01T03:24:04.127Z,94806.30
2019-03-01T03:27:12.799Z,94802.14
2019-03-01T03:30:20.469Z,94798.48
2019-03-01T03:33:28.177Z,94801.72
2019-03-01T03:36:35.696Z,94801.23
2019-03-01T03:39:43.053Z,94800.30
2019-03-01T03:42:50.963Z,94796.53
2019-03-01T03:45:58.889Z,94795.08
2019-03-01T03:49:06.572Z,94792.30
2019-03-01T03:52:13.767Z,94794.73
2019-03-01T03:55:21.385Z,94790.69
2019-03-01T03:58:29.080Z,94789.30
2019-03-01T04:01:36.577Z,94786.56
2019-03-01T04:04:44.065Z,94783.91
2019-03-01T04:07:51.453Z,94789.97
2019-03-01T04:10:58.931Z,94774.00
2019-03-01T04:14:06.214Z,94778.98
2019-03-01T04:17:14.024Z,94773.22
2019-03-01T04:20:21.543Z,94775.62
2019-03-01T04:23:29.086Z,94765.47
2019-03-01T04:26:36.365Z,94758.59
2019-03-01T04:29:45.448Z,94759.20
2019-03-01T04:32:52.855Z,94759.16
2019-03-01T04:36:00.122Z,94751.61
2019-03-01T04:39:07.671Z,94755.38
2019-03-01T04:42:15.348Z,94750.46
2019-03-01T04:45:23.990Z,94748.42
2019-03-01T04:48:32.546Z,94744.70
2019-03-01T04:51:40.494Z,94745.44
2019-03-01T04:54:49.996Z,94745.44
2019-03-01T04:57:58.732Z,94741.70
2019-03-01T05:01:06.301Z,94747.40
2019-03-01T05:04:13.572Z,94733.61
2019-03-01T05:07:21.141Z,94740.98
2019-03-01T05:10:28.845Z,94738.58
2019-03-01T05:13:36.340Z,94730.76
2019-03-01T05:16:43.822Z,94728.17
2019-03-01T05:19:51.847Z,94730.41
2019-03-01T05:22:59.391Z,94727.05
2019-03-01T05:26:06.791Z,94718.58
2019-03-01T05:29:14.301Z,94718.73
2019-03-01T05:32:21.617Z,94710.23
2019-03-01T05:35:28.890Z,94713.63
2019-03-01T05:38:36.617Z,94718.73
2019-03-01T05:42:05.744Z,94719.46
2019-03-01T05:45:17.025Z,94717.23
2019-03-01T05:48:24.337Z,94722.48
2019-03-01T05:51:37.107Z,94721.50
2019-03-01T05:54:45.301Z,94740.73
2019-03-01T05:58:47.445Z,94743.22
2019-03-01T06:03:05.868Z,94748.62
2019-03-01T06:06:17.057Z,94747.03
2019-03-01T06:10:06.985Z,94738.87
2019-03-01T06:14:00.006Z,94731.95
2019-03-01T06:18:26.043Z,94734.22
2019-03-01T06:22:35.373Z,94732.11
2019-03-01T06:26:13.989Z,94723.89
2019-03-01T06:29:50.717Z,94729.01
2019-03-01T06:33:37.302Z,94725.42
2019-03-01T06:37:22.297Z,94717.91
2019-03-01T06:41:39.731Z,94724.98
2019-03-01T06:45:50.842Z,94721.70
2019-03-01T06:49:17.711Z,94717.06
2019-03-01T06:52:25.089Z,94715.98
2019-03-01T06:55:56.466Z,94704.17
2019-03-01T06:59:06.349Z,94706.75
2019-03-01T07:02:18.387Z,94703.23
2019-03-01T07:05:26.075Z,94708.75
2019-03-01T07:08:33.402Z,94710.07
2019-03-01T07:11:40.978Z,94711.22
2019-03-01T07:14:49.180Z,94722.62
2019-03-01T07:17:58.632Z,94725.02
2019-03-01T07:21:06.437Z,94730.62
2019-03-01T07:24:14.500Z,94731.80
2019-03-01T07:27:22.223Z,94721.48
2019-03-01T07:30:32.877Z,94730.04
2019-03-01T07:33:40.052Z,94719.30
2019-03-01T07:36:47.426Z,94725.59
2019-03-01T07:39:54.634Z,94729.25
2019-03-01T07:43:02.001Z,94730.73
2019-03-01T07:46:09.888Z,94729.70
2019-03-01T07:49:17.465Z,94728.20
2019-03-01T07:52:24.890Z,94729.22
2019-03-01T07:55:32.594Z,94733.34
2019-03-01T07:58:39.758Z,94724.10
2019-03-01T08:01:47.361Z,94723.69
2019-03-01T08:04:55.158Z,94723.00
2019-03-01T08:08:03.769Z,94729.75
2019-03-01T08:11:12.073Z,94735.56
2019-03-01T08:14:20.200Z,94741.30
2019-03-01T08:17:31.619Z,94745.47
2019-03-01T08:20:38.129Z,94743.97
2019-03-01T08:23:46.060Z,94739.09
2019-03-01T08:26:53.998Z,94733.60
2019-03-01T08:30:02.008Z,94724.28
2019-03-01T08:33:09.447Z,94723.23
2019-03-01T08:36:17.056Z,94722.91
2019-03-01T08:39:24.876Z,94732.13
2019-03-01T08:42:32.682Z,94727.74
2019-03-01T08:45:41.641Z,94729.86
2019-03-01T08:48:48.828Z,94725.42
2019-03-01T08:51:58.491Z,94726.13
2019-03-01T08:55:07.823Z,94737.67
2019-03-01T08:58:15.514Z,94738.55
2019-03-01T09:01:23.839Z,94733.09
2019-03-01T09:04:37.562Z,94720.98
2019-03-01T09:07:40.987Z,94727.50
2019-03-01T09:10:48.457Z,94722.38
2019-03-01T09:13:55.696Z,94716.25
2019-03-01T09:17:04.160Z,94720.14
2019-03-01T09:20:13.458Z,94717.57
2019-03-01T09:23:25.304Z,94720.75
2019-03-01T09:26:30.329Z,94720.75
2019-03-01T09:29:41.498Z,94716.97
2019-03-01T09:32:46.943Z,94716.77
2019-03-01T09:36:05.966Z,94714.81
2019-03-01T09:39:14.431Z,94712.23
2019-03-01T09:42:22.915Z,94711.83
2019-03-01T09:45:36.203Z,94706.64
2019-03-01T09:48:40.059Z,94704.78
2019-03-01T09:51:49.892Z,94702.80
2019-03-01T09:54:57.054Z,94701.91
2019-03-01T09:58:04.577Z,94705.02
2019-03-01T10:01:16.888Z,94699.73
2019-03-01T10:04:24.222Z,94692.61
2019-03-01T10:07:31.668Z,94687.13
2019-03-01T10:10:39.448Z,94681.91
2019-03-01T10:13:46.856Z,94677.14
2019-03-01T10:16:55.261Z,94676.66
2019-03-01T10:20:03.921Z,94674.98
2019-03-01T10:23:14.435Z,94671.77
2019-03-01T10:26:21.840Z,94675.67
2019-03-01T10:29:29.499Z,94679.60
2019-03-01T10:32:37.113Z,94686.44
2019-03-01T10:35:44.618Z,94688.10
2019-03-01T10:38:52.251Z,94682.19
2019-03-01T10:41:59.429Z,94689.56
2019-03-01T10:45:11.188Z,94689.80
2019-03-01T10:48:18.529Z,94687.33
2019-03-01T10:51:26.709Z,94692.75
2019-03-01T10:54:34.155Z,94691.83
2019-03-01T10:57:41.930Z,94687.56
2019-03-01T11:00:49.738Z,94685.28
2019-03-01T11:03:57.171Z,94685.52
2019-03-01T11:07:05.341Z,94680.81
2019-03-01T11:10:18.106Z,94682.50
2019-03-01T11:13:25.444Z,94678.67
2019-03-01T11:16:34.618Z,94679.39
2019-03-01T11:19:42.149Z,94669.40
2019-03-01T11:22:49.801Z,94673.83
2019-03-01T11:25:56.969Z,94667.53
2019-03-01T11:29:04.531Z,94655.25
2019-03-01T11:32:11.813Z,94669.84
2019-03-01T11:35:19.099Z,94668.27
2019-03-01T11:38:26.476Z,94668.34
2019-03-01T11:41:33.993Z,94664.61
2019-03-01T11:44:41.263Z,94657.22
2019-03-01T11:47:48.956Z,94663.61
2019-03-01T11:50:56.233Z,94662.08
2019-03-01T11:54:04.138Z,94672.25
2019-03-01T11:57:11.646Z,94673.20
2019-03-01T12:00:22.996Z,94681.88
2019-03-01T12:03:33.008Z,94684.73
2019-03-01T12:06:40.529Z,94680.87
2019-03-01T12:09:47.983Z,94684.70
2019-03-01T12:12:55.460Z,94678.98
2019-03-01T12:16:02.788Z,94691.16
2019-03-01T12:19:09.962Z,94688.55
2019-03-01T12:22:17.583Z,94681.45
2019-03-01T12:25:24.926Z,94685.80
2019-03-01T12:28:34.041Z,94672.70
2019-03-01T12:31:41.313Z,94684.41
2019-03-01T12:34:48.603Z,94674.67
2019-03-01T12:37:56.065Z,94684.89
2019-03-01T12:41:03.961Z,94684.02
2019-03-01T12:44:11.881Z,94678.57
2019-03-01T12:47:22.221Z,94683.75
2019-03-01T12:50:30.888Z,94684.31
2019-03-01T12:53:38.516Z,94675.16
2019-03-01T12:56:45.749Z,94679.14
2019-03-01T12:59:53.899Z,94678.49
2019-03-01T13:03:05.118Z,94678.09
2019-03-01T13:06:11.468Z,94685.20
2019-03-01T13:09:18.663Z,94683.42
2019-03-01T13:12:26.938Z,94685.43
2019-03-01T13:15:34.929Z,94678.45
2019-03-01T13:18:42.522Z,94679.52
2019-03-01T13:21:50.243Z,94681.33
2019-03-01T13:24:57.873Z,94678.30
2019-03-01T13:28:05.633Z,94671.63
2019-03-01T13:31:13.136Z,94674.94
2019-03-01T13:34:20.306Z,94679.12
2019-03-01T13:37:27.837Z,94678.70
2019-03-01T13:40:35.616Z,94680.41
2019-03-01T13:43:42.801Z,94678.31
2019-03-01T13:46:50.612Z,94681.61
2019-03-01T13:49:58.106Z,94677.24
2019-03-01T13:53:06.623Z,94679.92
2019-03-01T13:56:14.849Z,94672.39
2019-03-01T13:59:23.540Z,94675.11
2019-03-01T14:02:30.983Z,94684.64
2019-03-01T14:05:38.514Z,94683.44
2019-03-01T14:08:46.179Z,94684.41
2019-03-01T14:11:55.957Z,94688.14
2019-03-01T14:15:04.842Z,94684.72
2019-03-01T14:18:12.389Z,94686.05
2019-03-01T14:21:20.178Z,94685.59
2019-03-01T14:24:29.559Z,94688.55
2019-03-01T14:27:37.102Z,94687.06
2019-03-01T14:30:44.491Z,94694.50
2019-03-01T14:33:51.822Z,94689.73
2019-03-01T14:36:59.775Z,94694.27
2019-03-01T14:40:09.873Z,94692.12
2019-03-01T14:43:20.345Z,94697.02
2019-03-01T14:46:26.722Z,94693.72
2019-03-01T14:49:33.931Z,94687.72
2019-03-01T14:52:41.741Z,94690.45
2019-03-01T14:55:55.724Z,94697.84
2019-03-01T14:59:20.822Z,94705.02
2019-03-01T15:02:47.885Z,94702.77
2019-03-01T15:05:55.890Z,94706.39
2019-03-01T15:09:05.942Z,94701.23
2019-03-01T15:12:19.816Z,94699.26
2019-03-01T15:15:25.818Z,94698.77
2019-03-01T15:18:32.608Z,94701.06
2019-03-01T15:21:40.809Z,94698.04
2019-03-01T15:24:48.460Z,94704.00
2019-03-01T15:27:55.606Z,94704.47
2019-03-01T15:31:02.960Z,94705.27
2019-03-01T15:34:10.213Z,94700.27
2019-03-01T15:37:17.653Z,94709.46
2019-03-01T15:40:27.747Z,94713.92
2019-03-01T15:43:34.679Z,94709.19
2019-03-01T15:46:41.967Z,94716.56
2019-03-01T15:49:51.515Z,94715.11
2019-03-01T15:52:58.301Z,94722.62
2019-03-01T15:56:06.923Z,94723.27
2019-03-01T15:59:14.929Z,94732.81
2019-03-01T16:02:22.567Z,94735.22
2019-03-01T16:05:30.861Z,94737.48
2019-03-01T16:08:38.729Z,94739.82
2019-03-01T16:11:46.441Z,94740.36
2019-03-01T16:14:57.402Z,94742.59
2019-03-01T16:18:03.935Z,94746.65
2019-03-01T16:21:11.481Z,94749.36
2019-03-01T16:24:18.935Z,94752.39
2019-03-01T16:27:26.277Z,94757.20
2019-03-01T16:30:33.786Z,94751.14
2019-03-01T16:33:41.237Z,94765.58
2019-03-01T16:36:51.361Z,94762.22
2019-03-01T16:40:00.355Z,94765.64
2019-03-01T16:43:08.440Z,94770.31
2019-03-01T16:46:15.814Z,94774.53
2019-03-01T16:49:27.088Z,94782.83
2019-03-01T16:52:32.727Z,94787.45
2019-03-01T16:55:40.448Z,94785.83
2019-03-01T16:58:47.950Z,94788.11
2019-03-01T17:01:55.296Z,94786.46
2019-03-01T17:05:03.606Z,94797.55
2019-03-01T17:08:12.395Z,94798.72
2019-03-01T17:11:20.045Z,94796.05
2019-03-01T17:14:27.530Z,94809.72
2019-03-01T17:17:36.911Z,94812.51
2019-03-01T17:20:44.148Z,94810.73
2019-03-01T17:23:51.336Z,94822.69
2019-03-01T17:27:02.053Z,94829.52
2019-03-01T17:30:14.330Z,94837.64
2019-03-01T17:33:21.532Z,94840.41
2019-03-01T17:36:29.444Z,94849.74
2019-03-01T17:39:37.757Z,94846.82
2019-03-01T17:42:46.785Z,94853.60
2019-03-01T17:45:57.465Z,94865.17
2019-03-01T17:49:03.800Z,94866.33
2019-03-01T17:52:12.038Z,94865.92
2019-03-01T17:55:20.917Z,94871.06
2019-03-01T17:58:29.363Z,94870.92
2019-03-01T18:01:39.182Z,94874.78
2019-03-01T18:04:46.742Z,94876.98
2019-03-01T18:07:55.203Z,94882.92
2019-03-01T18:11:05.382Z,94881.23
2019-03-01T18:14:12.446Z,94884.48
2019-03-01T18:17:20.087Z,94884.77
2019-03-01T18:20:27.892Z,94881.78
2019-03-01T18:23:38.010Z,94888.44
2019-03-01T18:26:44.899Z,94884.61
2019-03-01T18:29:52.081Z,94889.95
2019-03-01T18:32:59.870Z,94892.02
2019-03-01T18:36:08.172Z,94887.61
2019-03-01T18:39:15.567Z,94889.91
2019-03-01T18:42:23.297Z,94891.76
2019-03-01T18:45:30.931Z,94894.81
2019-03-01T18:48:40.568Z,94893.45
2019-03-01T18:51:48.764Z,94901.78
2019-03-01T18:54:56.315Z,94898.73
2019-03-01T18:58:03.690Z,94902.13
2019-03-01T19:01:12.107Z,94907.39
2019-03-01T19:04:29.366Z,94906.45
2019-03-01T19:07:28.948Z,94920.16
2019-03-01T19:10:36.848Z,94919.91
2019-03-01T19:13:44.125Z,94911.48
2019-03-01T19:16:51.808Z,94923.42
2019-03-01T19:20:01.882Z,94919.38
2019-03-01T19:23:09.855Z,94923.59
2019-03-01T19:26:17.607Z,94928.91
2019-03-01T19:29:25.093Z,94931.64
2019-03-01T19:32:32.901Z,94942.84
2019-03-01T19:35:40.684Z,94946.45
2019-03-01T19:38:48.774Z,94947.45
2019-03-01T19:41:58.029Z,94952.72
2019-03-01T19:45:07.341Z,94955.34
2019-03-01T19:48:15.048Z,94955.09
2019-03-01T19:51:22.503Z,94964.14
2019-03-01T19:54:32.323Z,94963.67
2019-03-01T19:57:39.873Z,94969.53
2019-03-01T20:00:48.149Z,94975.52
2019-03-01T20:03:57.137Z,94976.27
2019-03-01T20:07:04.832Z,94984.16
2019-03-01T20:10:15.094Z,94979.88
2019-03-01T20:13:23.529Z,94977.04
2019-03-01T20:16:31.029Z,94982.39
2019-03-01T20:19:38.568Z,94988.69
2019-03-01T20:22:46.030Z,94985.92
2019-03-01T20:25:53.400Z,94991.15
2019-03-01T20:29:00.781Z,94987.28
2019-03-01T20:32:08.258Z,94988.02
2019-03-01T20:35:15.979Z,94992.55
2019-03-01T20:38:23.520Z,94989.52
2019-03-01T20:41:30.836Z,94990.95
2019-03-01T20:44:38.415Z,94984.44
2019-03-01T20:47:46.117Z,94987.28
2019-03-01T20:50:53.270Z,94992.05
2019-03-01T20:54:01.117Z,94993.66
2019-03-01T20:57:08.838Z,95000.63
2019-03-01T21:00:16.872Z,95002.59
2019-03-01T21:03:29.849Z,95004.20
2019-03-01T21:06:34.095Z,95008.48
2019-03-01T21:09:41.784Z,95009.51
2019-03-01T21:12:49.830Z,95015.03
2019-03-01T21:15:57.661Z,95017.34
2019-03-01T21:19:05.847Z,95014.25
2019-03-01T21:22:17.430Z,95020.63
2019-03-01T21:25:24.933Z,95017.02
2019-03-01T21:28:33.699Z,95021.30
2019-03-01T21:31:42.074Z,95025.91
2019-03-01T21:34:49.716Z,95023.31
2019-03-01T21:37:57.247Z,95025.61
2019-03-01T21:41:06.370Z,95019.36
2019-03-01T21:44:14.494Z,95015.41
2019-03-01T21:47:22.370Z,95025.78
2019-03-01T21:50:29.927Z,95029.20
2019-03-01T21:53:39.872Z,95035.38
2019-03-01T21:56:55.732Z,95033.97
2019-03-01T21:59:56.850Z,95041.47
2019-03-01T22:03:04.877Z,95037.02
2019-03-01T22:06:13.009Z,95040.52
2019-03-01T22:09:24.331Z,95042.98
2019-03-01T22:12:30.082Z,95047.89
2019-03-01T22:15:37.478Z,95048.11
2019-03-01T22:18:44.625Z,95043.44
2019-03-01T22:21:54.691Z,95045.91
2019-03-01T22:25:02.214Z,95041.50
2019-03-01T22:28:09.998Z,95048.84
2019-03-01T22:31:18.431Z,95037.02
2019-03-01T22:34:27.432Z,95042.91
2019-03-01T22:37:34.952Z,95044.35
2019-03-01T22:40:42.237Z,95052.13
2019-03-01T22:43:49.442Z,95047.11
2019-03-01T22:46:57.875Z,95047.27
2019-03-01T22:50:07.906Z,95049.74
2019-03-01T22:53:15.530Z,95050.16
2019-03-01T22:56:23.509Z,95056.38
2019-03-01T22:59:31.529Z,95052.53
2019-03-01T23:02:43.555Z,95054.77
2019-03-01T23:05:50.692Z,95056.23
2019-03-01T23:08:58.189Z,95060.44
2019-03-01T23:12:08.088Z,95048.92
2019-03-01T23:15:15.703Z,95055.63
2019-03-01T23:18:23.006Z,95049.91
2019-03-01T23:21:32.677Z,95055.53
2019-03-01T23:24:39.769Z,95047.02
2019-03-01T23:27:48.184Z,95059.50
2019-03-01T23:30:55.494Z,95060.08
2019-03-01T23:34:03.615Z,95063.97
2019-03-01T23:37:12.361Z,95061.25
2019-03-01T23:40:19.916Z,95055.34
2019-03-01T23:43:27.532Z,95063.70
2019-03-01T23:46:36.181Z,95063.66
2019-03-01T23:49:43.575Z,95064.27
2019-03-01T23:52:51.021Z,95067.85
2019-03-01T23:55:58.290Z,95061.02
2019-03-01T23:59:06.236Z,95066.58
